LEHC

Huesca / Pirineos Airport

Monflorite/Alcalá del Obispo, Spain
TAF AMD LEHC 221343Z 2213/2309 30012KT 9999 FEW020 TX06/2213Z TN01/2306Z TEMPO 2214/2217 30018KT TEMPO 2213/2220 3000 RA BKN020 TEMPO 2220/2304 3000 BR BKN010 TEMPO 2304/2309 4000 RA BKN020 BECMG 2306/2308 30018KT
Issued Valid From Valid To
Jan-22 @ 13:43 UTC
(3 hours ago)
Jan-22 @ 13:00 UTC
(4 hours ago)
Jan-23 @ 09:00 UTC
(in 16 hours)
Jan-22 @ 13:00 to Jan-23 @ 06:00
TAF AMD LEHC 221343Z 2213/2309 30012KT 9999 FEW020 TX06/2213Z TN01/2306Z
Wind Visibility Clouds
300° at 12 knots 10,000+ meters
  • Few at 2,000' AGL
Temporary Jan-22 @ 13:00 to Jan-22 @ 20:00
TEMPO 2213/2220 3000 RA BKN020
Visibility Clouds Conditions
2,993 meters
  • Broken at 2,000' AGL
  • Rain
Temporary Jan-22 @ 14:00 to Jan-22 @ 17:00
TEMPO 2214/2217 30018KT
Wind
300° at 18 knots
Temporary Jan-22 @ 20:00 to Jan-23 @ 04:00
TEMPO 2220/2304 3000 BR BKN010
Visibility Clouds Conditions
2,993 meters
  • Broken at 1,000' AGL
  • Mist
Temporary Jan-23 @ 04:00 to Jan-23 @ 09:00
TEMPO 2304/2309 4000 RA BKN020
Visibility Clouds Conditions
4,007 meters
  • Broken at 2,000' AGL
  • Rain
Becoming Jan-23 @ 06:00 to Jan-23 @ 09:00
BECMG 2306/2308 30018KT
Wind Visibility Clouds
300° at 18 knots 10,000+ meters
  • Few at 2,000' AGL
TAF AMD LEHC 221343Z 2213/2309 30012KT 9999 FEW020 TX06/2213Z TN01/2306Z TEMPO 2214/2217 30018KT TEMPO 2213/2220 3000 RA BKN020 TEMPO 2220/2304 3000 BR BKN010 TEMPO 2304/2309 4000 RA BKN020 BECMG 2306/2308 30018KT
Issued Jan-22 @ 13:43 UTC
(3 hours ago)
Valid From Jan-22 @ 13:00 UTC
(4 hours ago)
Valid To Jan-23 @ 09:00 UTC
(in 16 hours)
Jan-22 @ 13:00 - Jan-23 @ 06:00
Wind Visibility
300° at 12 knots 10,000+ meters
Clouds
  • Few at 2,000' AGL
Temporary Jan-22 @ 13:00 - Jan-22 @ 20:00
Clouds
  • Broken at 2,000' AGL
Conditions
  • Rain
Temporary Jan-22 @ 14:00 - Jan-22 @ 17:00
Wind
300° at 18 knots
Temporary Jan-22 @ 20:00 - Jan-23 @ 04:00
Clouds
  • Broken at 1,000' AGL
Conditions
  • Mist
Temporary Jan-23 @ 04:00 - Jan-23 @ 09:00
Clouds
  • Broken at 2,000' AGL
Conditions
  • Rain
Becoming Jan-23 @ 06:00 - Jan-23 @ 09:00
Wind Visibility
300° at 18 knots 10,000+ meters
Clouds
  • Few at 2,000' AGL